sensor_id;sensor_type;location;lat;lon;timestamp;P1;durP1;ratioP1;P2;durP2;ratioP2
61038;SDS011;46919;45.816;3.104;2023-07-13T00:01:11;5.70;;;1.48;;
61038;SDS011;46919;45.816;3.104;2023-07-13T00:03:40;4.90;;;1.20;;
61038;SDS011;46919;45.816;3.104;2023-07-13T00:06:06;5.53;;;1.50;;
61038;SDS011;46919;45.816;3.104;2023-07-13T00:08:32;3.80;;;1.20;;
61038;SDS011;46919;45.816;3.104;2023-07-13T00:11:02;3.67;;;1.10;;
61038;SDS011;46919;45.816;3.104;2023-07-13T00:13:28;5.20;;;1.45;;
61038;SDS011;46919;45.816;3.104;2023-07-13T00:15:56;5.03;;;1.50;;
61038;SDS011;46919;45.816;3.104;2023-07-13T00:18:23;3.92;;;1.17;;
61038;SDS011;46919;45.816;3.104;2023-07-13T00:20:48;5.22;;;1.40;;
61038;SDS011;46919;45.816;3.104;2023-07-13T00:23:14;3.38;;;1.50;;
61038;SDS011;46919;45.816;3.104;2023-07-13T00:25:39;4.38;;;1.52;;
61038;SDS011;46919;45.816;3.104;2023-07-13T00:28:05;4.70;;;1.42;;
61038;SDS011;46919;45.816;3.104;2023-07-13T00:30:30;6.45;;;1.48;;
61038;SDS011;46919;45.816;3.104;2023-07-13T00:32:56;5.85;;;1.70;;
61038;SDS011;46919;45.816;3.104;2023-07-13T00:35:22;5.03;;;1.20;;
61038;SDS011;46919;45.816;3.104;2023-07-13T00:37:48;7.35;;;1.58;;
61038;SDS011;46919;45.816;3.104;2023-07-13T00:40:14;5.10;;;1.27;;
61038;SDS011;46919;45.816;3.104;2023-07-13T00:42:40;6.03;;;1.30;;
61038;SDS011;46919;45.816;3.104;2023-07-13T00:47:38;4.43;;;1.48;;
61038;SDS011;46919;45.816;3.104;2023-07-13T00:50:05;3.13;;;1.25;;
61038;SDS011;46919;45.816;3.104;2023-07-13T00:52:34;3.95;;;1.63;;
61038;SDS011;46919;45.816;3.104;2023-07-13T00:55:01;4.55;;;1.73;;
61038;SDS011;46919;45.816;3.104;2023-07-13T00:57:27;4.13;;;1.10;;
61038;SDS011;46919;45.816;3.104;2023-07-13T00:59:54;4.45;;;1.60;;
61038;SDS011;46919;45.816;3.104;2023-07-13T01:02:23;4.35;;;1.40;;
61038;SDS011;46919;45.816;3.104;2023-07-13T01:04:49;4.05;;;1.50;;
61038;SDS011;46919;45.816;3.104;2023-07-13T01:07:14;7.38;;;1.38;;
61038;SDS011;46919;45.816;3.104;2023-07-13T01:09:40;4.38;;;1.40;;
61038;SDS011;46919;45.816;3.104;2023-07-13T01:12:05;5.80;;;1.40;;
61038;SDS011;46919;45.816;3.104;2023-07-13T01:14:32;4.63;;;1.52;;
61038;SDS011;46919;45.816;3.104;2023-07-13T01:16:57;2.60;;;1.30;;
61038;SDS011;46919;45.816;3.104;2023-07-13T01:21:51;4.45;;;1.27;;
61038;SDS011;46919;45.816;3.104;2023-07-13T01:24:17;2.72;;;1.27;;
61038;SDS011;46919;45.816;3.104;2023-07-13T01:26:42;4.13;;;1.38;;
61038;SDS011;46919;45.816;3.104;2023-07-13T01:29:08;3.45;;;1.30;;
61038;SDS011;46919;45.816;3.104;2023-07-13T01:31:33;5.65;;;1.55;;
61038;SDS011;46919;45.816;3.104;2023-07-13T01:34:00;5.25;;;1.30;;
61038;SDS011;46919;45.816;3.104;2023-07-13T01:36:25;4.95;;;1.52;;
61038;SDS011;46919;45.816;3.104;2023-07-13T01:38:50;5.47;;;1.50;;
61038;SDS011;46919;45.816;3.104;2023-07-13T01:41:16;2.92;;;1.10;;
61038;SDS011;46919;45.816;3.104;2023-07-13T01:43:41;4.15;;;1.42;;
61038;SDS011;46919;45.816;3.104;2023-07-13T01:46:07;3.90;;;1.33;;
61038;SDS011;46919;45.816;3.104;2023-07-13T01:48:33;6.43;;;1.30;;
61038;SDS011;46919;45.816;3.104;2023-07-13T01:50:58;7.07;;;1.70;;
61038;SDS011;46919;45.816;3.104;2023-07-13T01:53:23;4.80;;;1.40;;
61038;SDS011;46919;45.816;3.104;2023-07-13T01:55:49;4.95;;;1.27;;
61038;SDS011;46919;45.816;3.104;2023-07-13T01:58:14;4.40;;;1.15;;
61038;SDS011;46919;45.816;3.104;2023-07-13T02:00:39;5.75;;;1.30;;
61038;SDS011;46919;45.816;3.104;2023-07-13T02:03:05;5.07;;;1.30;;
61038;SDS011;46919;45.816;3.104;2023-07-13T02:05:30;5.45;;;1.23;;
61038;SDS011;46919;45.816;3.104;2023-07-13T02:07:56;3.53;;;1.63;;
61038;SDS011;46919;45.816;3.104;2023-07-13T02:10:21;3.85;;;1.08;;
61038;SDS011;46919;45.816;3.104;2023-07-13T02:12:47;5.47;;;1.27;;
61038;SDS011;46919;45.816;3.104;2023-07-13T02:15:14;6.35;;;1.30;;
61038;SDS011;46919;45.816;3.104;2023-07-13T02:17:39;5.22;;;1.23;;
61038;SDS011;46919;45.816;3.104;2023-07-13T02:20:06;5.20;;;1.40;;
61038;SDS011;46919;45.816;3.104;2023-07-13T02:22:32;4.53;;;1.45;;
61038;SDS011;46919;45.816;3.104;2023-07-13T02:24:57;4.03;;;1.40;;
61038;SDS011;46919;45.816;3.104;2023-07-13T02:27:23;4.25;;;1.17;;
61038;SDS011;46919;45.816;3.104;2023-07-13T02:29:48;9.77;;;1.65;;
61038;SDS011;46919;45.816;3.104;2023-07-13T02:32:16;3.58;;;1.40;;
61038;SDS011;46919;45.816;3.104;2023-07-13T02:34:42;5.97;;;1.63;;
61038;SDS011;46919;45.816;3.104;2023-07-13T02:37:07;4.28;;;1.10;;
61038;SDS011;46919;45.816;3.104;2023-07-13T02:39:33;6.72;;;1.60;;
61038;SDS011;46919;45.816;3.104;2023-07-13T02:41:58;4.93;;;1.48;;
61038;SDS011;46919;45.816;3.104;2023-07-13T02:44:25;4.95;;;1.50;;
61038;SDS011;46919;45.816;3.104;2023-07-13T02:46:51;4.53;;;1.15;;
61038;SDS011;46919;45.816;3.104;2023-07-13T02:49:16;7.70;;;1.27;;
61038;SDS011;46919;45.816;3.104;2023-07-13T02:51:41;6.00;;;1.58;;
61038;SDS011;46919;45.816;3.104;2023-07-13T02:54:07;3.13;;;1.38;;
61038;SDS011;46919;45.816;3.104;2023-07-13T02:56:33;3.22;;;1.20;;
61038;SDS011;46919;45.816;3.104;2023-07-13T02:58:58;3.00;;;1.40;;
61038;SDS011;46919;45.816;3.104;2023-07-13T03:01:24;5.32;;;1.40;;
61038;SDS011;46919;45.816;3.104;2023-07-13T03:03:50;5.82;;;1.40;;
61038;SDS011;46919;45.816;3.104;2023-07-13T03:06:16;2.72;;;1.08;;
61038;SDS011;46919;45.816;3.104;2023-07-13T03:08:43;4.05;;;1.30;;
61038;SDS011;46919;45.816;3.104;2023-07-13T03:11:10;3.75;;;1.17;;
61038;SDS011;46919;45.816;3.104;2023-07-13T03:13:38;4.85;;;1.40;;
61038;SDS011;46919;45.816;3.104;2023-07-13T03:16:04;6.90;;;1.20;;
61038;SDS011;46919;45.816;3.104;2023-07-13T03:18:31;3.47;;;1.10;;
61038;SDS011;46919;45.816;3.104;2023-07-13T03:20:57;3.65;;;1.13;;
61038;SDS011;46919;45.816;3.104;2023-07-13T03:23:22;3.50;;;1.30;;
61038;SDS011;46919;45.816;3.104;2023-07-13T03:25:48;5.25;;;1.20;;
61038;SDS011;46919;45.816;3.104;2023-07-13T03:28:14;6.05;;;1.50;;
61038;SDS011;46919;45.816;3.104;2023-07-13T03:30:40;5.35;;;1.40;;
61038;SDS011;46919;45.816;3.104;2023-07-13T03:33:06;6.10;;;1.42;;
61038;SDS011;46919;45.816;3.104;2023-07-13T03:35:32;3.00;;;0.98;;
61038;SDS011;46919;45.816;3.104;2023-07-13T03:37:58;2.78;;;1.20;;
61038;SDS011;46919;45.816;3.104;2023-07-13T03:40:24;4.47;;;1.40;;
61038;SDS011;46919;45.816;3.104;2023-07-13T03:42:51;2.55;;;1.05;;
61038;SDS011;46919;45.816;3.104;2023-07-13T03:45:16;5.55;;;1.05;;
61038;SDS011;46919;45.816;3.104;2023-07-13T03:47:42;3.85;;;1.50;;
61038;SDS011;46919;45.816;3.104;2023-07-13T03:50:07;6.90;;;1.17;;
61038;SDS011;46919;45.816;3.104;2023-07-13T03:52:33;5.95;;;1.73;;
61038;SDS011;46919;45.816;3.104;2023-07-13T03:54:58;4.47;;;1.10;;
61038;SDS011;46919;45.816;3.104;2023-07-13T03:57:24;3.25;;;1.33;;
61038;SDS011;46919;45.816;3.104;2023-07-13T03:59:49;5.80;;;0.90;;
61038;SDS011;46919;45.816;3.104;2023-07-13T04:02:14;5.57;;;1.20;;
61038;SDS011;46919;45.816;3.104;2023-07-13T04:04:40;2.95;;;1.33;;
61038;SDS011;46919;45.816;3.104;2023-07-13T04:07:06;5.20;;;1.38;;
61038;SDS011;46919;45.816;3.104;2023-07-13T04:09:33;5.07;;;1.30;;
61038;SDS011;46919;45.816;3.104;2023-07-13T04:11:58;3.10;;;1.00;;
61038;SDS011;46919;45.816;3.104;2023-07-13T04:14:24;4.63;;;1.38;;
61038;SDS011;46919;45.816;3.104;2023-07-13T04:16:49;3.60;;;1.20;;
61038;SDS011;46919;45.816;3.104;2023-07-13T04:19:15;2.60;;;1.10;;
61038;SDS011;46919;45.816;3.104;2023-07-13T04:21:40;4.68;;;1.13;;
61038;SDS011;46919;45.816;3.104;2023-07-13T04:24:05;5.85;;;1.15;;
61038;SDS011;46919;45.816;3.104;2023-07-13T04:26:31;6.32;;;1.10;;
61038;SDS011;46919;45.816;3.104;2023-07-13T04:28:57;3.55;;;1.13;;
61038;SDS011;46919;45.816;3.104;2023-07-13T04:31:22;7.95;;;1.25;;
61038;SDS011;46919;45.816;3.104;2023-07-13T04:33:48;4.70;;;1.15;;
61038;SDS011;46919;45.816;3.104;2023-07-13T04:36:16;4.22;;;1.30;;
61038;SDS011;46919;45.816;3.104;2023-07-13T04:38:41;5.55;;;1.23;;
61038;SDS011;46919;45.816;3.104;2023-07-13T04:41:07;2.20;;;1.13;;
61038;SDS011;46919;45.816;3.104;2023-07-13T04:43:34;3.75;;;1.00;;
61038;SDS011;46919;45.816;3.104;2023-07-13T04:46:18;3.92;;;1.30;;
61038;SDS011;46919;45.816;3.104;2023-07-13T04:48:44;4.38;;;1.38;;
61038;SDS011;46919;45.816;3.104;2023-07-13T04:51:09;7.03;;;1.50;;
61038;SDS011;46919;45.816;3.104;2023-07-13T04:53:35;3.00;;;1.00;;
61038;SDS011;46919;45.816;3.104;2023-07-13T04:56:00;3.40;;;1.27;;
61038;SDS011;46919;45.816;3.104;2023-07-13T04:58:26;4.55;;;1.05;;
61038;SDS011;46919;45.816;3.104;2023-07-13T05:00:52;3.78;;;1.20;;
61038;SDS011;46919;45.816;3.104;2023-07-13T05:03:18;5.95;;;1.40;;
61038;SDS011;46919;45.816;3.104;2023-07-13T05:05:54;5.80;;;1.35;;
61038;SDS011;46919;45.816;3.104;2023-07-13T05:08:20;5.93;;;1.20;;
61038;SDS011;46919;45.816;3.104;2023-07-13T05:10:46;2.60;;;1.13;;
61038;SDS011;46919;45.816;3.104;2023-07-13T05:13:11;3.97;;;1.20;;
61038;SDS011;46919;45.816;3.104;2023-07-13T05:15:36;4.45;;;1.10;;
61038;SDS011;46919;45.816;3.104;2023-07-13T05:18:02;2.80;;;1.05;;
61038;SDS011;46919;45.816;3.104;2023-07-13T05:20:27;1.95;;;1.00;;
61038;SDS011;46919;45.816;3.104;2023-07-13T05:22:52;5.68;;;1.20;;
61038;SDS011;46919;45.816;3.104;2023-07-13T05:25:18;4.13;;;1.20;;
61038;SDS011;46919;45.816;3.104;2023-07-13T05:27:44;5.57;;;1.20;;
61038;SDS011;46919;45.816;3.104;2023-07-13T05:30:10;2.65;;;1.00;;
61038;SDS011;46919;45.816;3.104;2023-07-13T05:32:36;6.05;;;1.17;;
61038;SDS011;46919;45.816;3.104;2023-07-13T05:35:02;5.68;;;1.30;;
61038;SDS011;46919;45.816;3.104;2023-07-13T05:37:28;4.47;;;1.17;;
61038;SDS011;46919;45.816;3.104;2023-07-13T05:39:53;4.68;;;1.00;;
61038;SDS011;46919;45.816;3.104;2023-07-13T05:42:18;6.93;;;1.40;;
61038;SDS011;46919;45.816;3.104;2023-07-13T05:44:44;7.63;;;1.30;;
61038;SDS011;46919;45.816;3.104;2023-07-13T05:47:09;1.70;;;0.90;;
61038;SDS011;46919;45.816;3.104;2023-07-13T05:49:35;5.25;;;1.30;;
61038;SDS011;46919;45.816;3.104;2023-07-13T05:52:00;5.75;;;1.17;;
61038;SDS011;46919;45.816;3.104;2023-07-13T05:54:26;5.22;;;1.08;;
61038;SDS011;46919;45.816;3.104;2023-07-13T05:56:52;4.32;;;1.20;;
61038;SDS011;46919;45.816;3.104;2023-07-13T05:59:17;3.45;;;1.00;;
61038;SDS011;46919;45.816;3.104;2023-07-13T06:01:43;5.63;;;1.27;;
61038;SDS011;46919;45.816;3.104;2023-07-13T06:04:08;3.60;;;1.40;;
61038;SDS011;46919;45.816;3.104;2023-07-13T06:06:34;3.83;;;1.20;;
61038;SDS011;46919;45.816;3.104;2023-07-13T06:08:59;5.00;;;1.35;;
61038;SDS011;46919;45.816;3.104;2023-07-13T06:11:25;7.90;;;1.20;;
61038;SDS011;46919;45.816;3.104;2023-07-13T06:13:52;4.75;;;1.20;;
61038;SDS011;46919;45.816;3.104;2023-07-13T06:16:19;7.97;;;1.35;;
61038;SDS011;46919;45.816;3.104;2023-07-13T06:18:44;3.85;;;1.10;;
61038;SDS011;46919;45.816;3.104;2023-07-13T06:21:11;3.92;;;1.30;;
61038;SDS011;46919;45.816;3.104;2023-07-13T06:23:40;4.88;;;1.33;;
61038;SDS011;46919;45.816;3.104;2023-07-13T06:26:06;3.78;;;1.33;;
61038;SDS011;46919;45.816;3.104;2023-07-13T06:28:32;6.53;;;1.25;;
61038;SDS011;46919;45.816;3.104;2023-07-13T06:30:58;8.30;;;1.40;;
61038;SDS011;46919;45.816;3.104;2023-07-13T06:33:24;6.03;;;1.30;;
61038;SDS011;46919;45.816;3.104;2023-07-13T06:35:50;2.95;;;1.17;;
61038;SDS011;46919;45.816;3.104;2023-07-13T06:38:16;4.78;;;1.67;;
61038;SDS011;46919;45.816;3.104;2023-07-13T06:40:41;5.25;;;1.20;;
61038;SDS011;46919;45.816;3.104;2023-07-13T06:43:06;3.45;;;1.00;;
61038;SDS011;46919;45.816;3.104;2023-07-13T06:45:34;4.75;;;1.23;;
61038;SDS011;46919;45.816;3.104;2023-07-13T06:48:05;3.97;;;1.00;;
61038;SDS011;46919;45.816;3.104;2023-07-13T06:50:30;6.18;;;1.25;;
61038;SDS011;46919;45.816;3.104;2023-07-13T06:52:56;4.57;;;1.10;;
61038;SDS011;46919;45.816;3.104;2023-07-13T06:55:21;3.85;;;1.00;;
61038;SDS011;46919;45.816;3.104;2023-07-13T06:57:46;2.45;;;0.75;;
61038;SDS011;46919;45.816;3.104;2023-07-13T07:00:12;6.03;;;1.30;;
61038;SDS011;46919;45.816;3.104;2023-07-13T07:02:38;6.60;;;1.00;;
61038;SDS011;46919;45.816;3.104;2023-07-13T07:05:03;6.85;;;0.90;;
61038;SDS011;46919;45.816;3.104;2023-07-13T07:07:29;6.60;;;1.52;;
61038;SDS011;46919;45.816;3.104;2023-07-13T07:09:54;6.82;;;1.17;;
61038;SDS011;46919;45.816;3.104;2023-07-13T07:12:20;3.95;;;1.00;;
61038;SDS011;46919;45.816;3.104;2023-07-13T07:14:45;3.50;;;0.90;;
61038;SDS011;46919;45.816;3.104;2023-07-13T07:17:11;4.55;;;1.25;;
61038;SDS011;46919;45.816;3.104;2023-07-13T07:19:37;4.55;;;1.00;;
61038;SDS011;46919;45.816;3.104;2023-07-13T07:22:02;2.63;;;0.95;;
61038;SDS011;46919;45.816;3.104;2023-07-13T07:24:28;8.13;;;1.10;;
61038;SDS011;46919;45.816;3.104;2023-07-13T07:26:53;4.07;;;1.27;;
61038;SDS011;46919;45.816;3.104;2023-07-13T07:29:19;4.55;;;1.20;;
61038;SDS011;46919;45.816;3.104;2023-07-13T07:31:44;5.82;;;1.17;;
61038;SDS011;46919;45.816;3.104;2023-07-13T07:34:10;6.28;;;1.55;;
61038;SDS011;46919;45.816;3.104;2023-07-13T07:36:35;5.90;;;1.10;;
61038;SDS011;46919;45.816;3.104;2023-07-13T07:39:00;4.10;;;0.93;;
61038;SDS011;46919;45.816;3.104;2023-07-13T07:41:26;2.95;;;1.33;;
61038;SDS011;46919;45.816;3.104;2023-07-13T07:43:51;3.97;;;1.00;;
61038;SDS011;46919;45.816;3.104;2023-07-13T07:46:16;6.82;;;1.17;;
61038;SDS011;46919;45.816;3.104;2023-07-13T07:48:42;6.35;;;1.30;;
61038;SDS011;46919;45.816;3.104;2023-07-13T07:51:07;7.68;;;1.23;;
61038;SDS011;46919;45.816;3.104;2023-07-13T07:53:32;5.70;;;0.75;;
61038;SDS011;46919;45.816;3.104;2023-07-13T07:55:58;5.88;;;0.98;;
61038;SDS011;46919;45.816;3.104;2023-07-13T07:58:23;4.63;;;1.10;;
61038;SDS011;46919;45.816;3.104;2023-07-13T08:00:49;6.07;;;1.27;;
61038;SDS011;46919;45.816;3.104;2023-07-13T08:03:14;5.07;;;0.93;;
61038;SDS011;46919;45.816;3.104;2023-07-13T08:05:39;4.47;;;1.23;;
61038;SDS011;46919;45.816;3.104;2023-07-13T08:08:05;2.70;;;0.95;;
61038;SDS011;46919;45.816;3.104;2023-07-13T08:10:30;5.20;;;0.98;;
61038;SDS011;46919;45.816;3.104;2023-07-13T08:12:55;7.10;;;1.40;;
61038;SDS011;46919;45.816;3.104;2023-07-13T08:15:21;6.60;;;1.20;;
61038;SDS011;46919;45.816;3.104;2023-07-13T08:17:48;3.38;;;0.80;;
61038;SDS011;46919;45.816;3.104;2023-07-13T08:20:14;3.60;;;0.90;;
61038;SDS011;46919;45.816;3.104;2023-07-13T08:22:39;2.60;;;0.73;;
61038;SDS011;46919;45.816;3.104;2023-07-13T08:25:05;3.47;;;0.88;;
61038;SDS011;46919;45.816;3.104;2023-07-13T08:27:31;2.38;;;0.98;;
61038;SDS011;46919;45.816;3.104;2023-07-13T08:29:56;4.25;;;1.25;;
61038;SDS011;46919;45.816;3.104;2023-07-13T08:32:22;4.28;;;0.82;;
61038;SDS011;46919;45.816;3.104;2023-07-13T08:34:48;4.05;;;0.70;;
61038;SDS011;46919;45.816;3.104;2023-07-13T08:37:15;3.80;;;0.80;;
61038;SDS011;46919;45.816;3.104;2023-07-13T08:39:41;2.83;;;0.90;;
61038;SDS011;46919;45.816;3.104;2023-07-13T08:42:11;4.57;;;0.95;;
61038;SDS011;46919;45.816;3.104;2023-07-13T08:47:37;3.92;;;1.00;;
61038;SDS011;46919;45.816;3.104;2023-07-13T08:50:09;2.60;;;0.80;;
61038;SDS011;46919;45.816;3.104;2023-07-13T08:55:13;2.83;;;0.70;;
61038;SDS011;46919;45.816;3.104;2023-07-13T08:57:42;3.38;;;0.93;;
61038;SDS011;46919;45.816;3.104;2023-07-13T09:00:11;2.88;;;0.80;;
61038;SDS011;46919;45.816;3.104;2023-07-13T09:05:18;3.08;;;1.10;;
61038;SDS011;46919;45.816;3.104;2023-07-13T09:14:04;2.53;;;0.82;;
61038;SDS011;46919;45.816;3.104;2023-07-13T09:16:44;2.60;;;0.90;;
61038;SDS011;46919;45.816;3.104;2023-07-13T09:19:13;4.85;;;0.70;;
61038;SDS011;46919;45.816;3.104;2023-07-13T09:21:49;3.70;;;0.60;;
61038;SDS011;46919;45.816;3.104;2023-07-13T09:24:41;1.42;;;0.60;;
61038;SDS011;46919;45.816;3.104;2023-07-13T09:27:29;5.22;;;0.80;;
61038;SDS011;46919;45.816;3.104;2023-07-13T09:32:40;3.38;;;0.93;;
61038;SDS011;46919;45.816;3.104;2023-07-13T09:35:11;1.35;;;0.77;;
61038;SDS011;46919;45.816;3.104;2023-07-13T09:37:40;3.30;;;0.60;;
61038;SDS011;46919;45.816;3.104;2023-07-13T09:40:11;2.00;;;0.80;;
61038;SDS011;46919;45.816;3.104;2023-07-13T09:42:45;2.47;;;0.63;;
61038;SDS011;46919;45.816;3.104;2023-07-13T09:45:11;3.08;;;0.70;;
61038;SDS011;46919;45.816;3.104;2023-07-13T09:47:53;1.58;;;0.60;;
61038;SDS011;46919;45.816;3.104;2023-07-13T09:50:38;0.85;;;0.60;;
61038;SDS011;46919;45.816;3.104;2023-07-13T09:53:04;2.08;;;0.77;;
61038;SDS011;46919;45.816;3.104;2023-07-13T09:55:39;3.10;;;0.70;;
61038;SDS011;46919;45.816;3.104;2023-07-13T10:00:40;2.45;;;0.60;;
61038;SDS011;46919;45.816;3.104;2023-07-13T10:03:18;2.80;;;0.80;;
61038;SDS011;46919;45.816;3.104;2023-07-13T10:05:47;4.07;;;0.70;;
61038;SDS011;46919;45.816;3.104;2023-07-13T10:08:19;2.38;;;0.60;;
61038;SDS011;46919;45.816;3.104;2023-07-13T10:10:47;4.40;;;0.70;;
61038;SDS011;46919;45.816;3.104;2023-07-13T10:16:10;2.97;;;0.90;;
61038;SDS011;46919;45.816;3.104;2023-07-13T10:21:13;1.50;;;0.63;;
61038;SDS011;46919;45.816;3.104;2023-07-13T10:23:44;2.35;;;0.50;;
61038;SDS011;46919;45.816;3.104;2023-07-13T10:26:14;2.47;;;0.60;;
61038;SDS011;46919;45.816;3.104;2023-07-13T10:28:45;1.43;;;0.70;;
61038;SDS011;46919;45.816;3.104;2023-07-13T10:31:15;3.70;;;0.70;;
61038;SDS011;46919;45.816;3.104;2023-07-13T10:33:41;1.15;;;0.63;;
61038;SDS011;46919;45.816;3.104;2023-07-13T10:39:06;1.92;;;0.70;;
61038;SDS011;46919;45.816;3.104;2023-07-13T10:41:34;5.28;;;0.77;;
61038;SDS011;46919;45.816;3.104;2023-07-13T10:44:04;1.83;;;0.75;;
61038;SDS011;46919;45.816;3.104;2023-07-13T10:46:31;2.03;;;0.73;;
61038;SDS011;46919;45.816;3.104;2023-07-13T10:49:04;2.08;;;0.73;;
61038;SDS011;46919;45.816;3.104;2023-07-13T10:51:32;2.28;;;0.70;;
61038;SDS011;46919;45.816;3.104;2023-07-13T10:56:44;3.35;;;0.95;;
61038;SDS011;46919;45.816;3.104;2023-07-13T10:59:15;2.67;;;0.85;;
61038;SDS011;46919;45.816;3.104;2023-07-13T11:02:13;1.58;;;0.77;;
61038;SDS011;46919;45.816;3.104;2023-07-13T11:04:52;1.98;;;0.68;;
61038;SDS011;46919;45.816;3.104;2023-07-13T11:07:20;2.40;;;0.73;;
61038;SDS011;46919;45.816;3.104;2023-07-13T11:09:54;5.03;;;0.82;;
61038;SDS011;46919;45.816;3.104;2023-07-13T11:19:52;1.70;;;0.68;;
61038;SDS011;46919;45.816;3.104;2023-07-13T11:22:22;1.83;;;0.60;;
61038;SDS011;46919;45.816;3.104;2023-07-13T11:24:52;2.20;;;0.70;;
61038;SDS011;46919;45.816;3.104;2023-07-13T11:27:38;2.92;;;0.60;;
61038;SDS011;46919;45.816;3.104;2023-07-13T11:33:09;1.83;;;0.65;;
61038;SDS011;46919;45.816;3.104;2023-07-13T11:35:49;3.45;;;0.70;;
61038;SDS011;46919;45.816;3.104;2023-07-13T11:38:16;2.65;;;0.80;;
61038;SDS011;46919;45.816;3.104;2023-07-13T11:40:53;1.80;;;0.50;;
61038;SDS011;46919;45.816;3.104;2023-07-13T11:43:20;2.53;;;0.60;;
61038;SDS011;46919;45.816;3.104;2023-07-13T11:45:48;3.33;;;0.60;;
61038;SDS011;46919;45.816;3.104;2023-07-13T11:48:25;3.15;;;0.88;;
61038;SDS011;46919;45.816;3.104;2023-07-13T11:50:57;4.85;;;0.80;;
61038;SDS011;46919;45.816;3.104;2023-07-13T11:53:28;2.92;;;0.90;;
61038;SDS011;46919;45.816;3.104;2023-07-13T11:55:56;4.30;;;0.75;;
61038;SDS011;46919;45.816;3.104;2023-07-13T11:58:23;2.10;;;0.70;;
61038;SDS011;46919;45.816;3.104;2023-07-13T12:00:50;1.05;;;0.60;;
61038;SDS011;46919;45.816;3.104;2023-07-13T12:03:20;2.75;;;0.95;;
61038;SDS011;46919;45.816;3.104;2023-07-13T12:06:06;2.40;;;0.70;;
61038;SDS011;46919;45.816;3.104;2023-07-13T12:08:48;2.03;;;0.80;;
61038;SDS011;46919;45.816;3.104;2023-07-13T12:11:17;2.25;;;0.75;;
61038;SDS011;46919;45.816;3.104;2023-07-13T12:13:43;1.08;;;0.60;;
61038;SDS011;46919;45.816;3.104;2023-07-13T12:16:17;3.30;;;0.70;;
61038;SDS011;46919;45.816;3.104;2023-07-13T12:18:47;2.33;;;0.70;;
61038;SDS011;46919;45.816;3.104;2023-07-13T12:21:14;7.40;;;0.80;;
61038;SDS011;46919;45.816;3.104;2023-07-13T12:23:44;2.22;;;0.95;;
61038;SDS011;46919;45.816;3.104;2023-07-13T12:26:12;3.97;;;0.75;;
61038;SDS011;46919;45.816;3.104;2023-07-13T12:28:39;4.25;;;0.98;;
61038;SDS011;46919;45.816;3.104;2023-07-13T12:31:22;2.58;;;0.85;;
61038;SDS011;46919;45.816;3.104;2023-07-13T12:34:00;3.50;;;1.00;;
61038;SDS011;46919;45.816;3.104;2023-07-13T12:36:31;1.77;;;0.70;;
61038;SDS011;46919;45.816;3.104;2023-07-13T12:39:00;2.58;;;0.65;;
61038;SDS011;46919;45.816;3.104;2023-07-13T12:41:29;2.78;;;0.90;;
61038;SDS011;46919;45.816;3.104;2023-07-13T12:43:55;1.77;;;0.65;;
61038;SDS011;46919;45.816;3.104;2023-07-13T12:46:23;3.72;;;0.90;;
61038;SDS011;46919;45.816;3.104;2023-07-13T12:48:54;1.52;;;0.80;;
61038;SDS011;46919;45.816;3.104;2023-07-13T12:51:22;2.22;;;0.95;;
61038;SDS011;46919;45.816;3.104;2023-07-13T12:53:51;2.25;;;0.85;;
61038;SDS011;46919;45.816;3.104;2023-07-13T12:56:23;2.38;;;0.77;;
61038;SDS011;46919;45.816;3.104;2023-07-13T12:58:57;3.50;;;0.80;;
61038;SDS011;46919;45.816;3.104;2023-07-13T13:01:29;3.83;;;0.75;;
61038;SDS011;46919;45.816;3.104;2023-07-13T13:04:00;4.03;;;1.00;;
61038;SDS011;46919;45.816;3.104;2023-07-13T13:06:29;3.60;;;0.80;;
61038;SDS011;46919;45.816;3.104;2023-07-13T13:08:56;2.45;;;0.80;;
61038;SDS011;46919;45.816;3.104;2023-07-13T13:11:23;4.00;;;0.90;;
61038;SDS011;46919;45.816;3.104;2023-07-13T13:13:51;2.00;;;0.90;;
61038;SDS011;46919;45.816;3.104;2023-07-13T13:18:42;6.00;;;1.25;;
61038;SDS011;46919;45.816;3.104;2023-07-13T13:21:08;2.40;;;1.00;;
61038;SDS011;46919;45.816;3.104;2023-07-13T13:23:35;4.50;;;0.65;;
61038;SDS011;46919;45.816;3.104;2023-07-13T13:26:00;2.03;;;0.70;;
61038;SDS011;46919;45.816;3.104;2023-07-13T13:28:27;1.42;;;0.82;;
61038;SDS011;46919;45.816;3.104;2023-07-13T13:30:52;3.50;;;0.95;;
61038;SDS011;46919;45.816;3.104;2023-07-13T13:33:19;2.00;;;0.98;;
61038;SDS011;46919;45.816;3.104;2023-07-13T13:35:46;3.28;;;0.70;;
61038;SDS011;46919;45.816;3.104;2023-07-13T13:38:16;1.55;;;0.70;;
61038;SDS011;46919;45.816;3.104;2023-07-13T13:40:44;3.33;;;0.68;;
61038;SDS011;46919;45.816;3.104;2023-07-13T13:43:18;2.00;;;0.63;;
61038;SDS011;46919;45.816;3.104;2023-07-13T13:45:51;2.20;;;0.80;;
61038;SDS011;46919;45.816;3.104;2023-07-13T13:48:19;3.47;;;0.90;;
61038;SDS011;46919;45.816;3.104;2023-07-13T13:50:55;2.65;;;0.90;;
61038;SDS011;46919;45.816;3.104;2023-07-13T13:53:20;2.90;;;0.88;;
61038;SDS011;46919;45.816;3.104;2023-07-13T13:55:47;1.08;;;0.63;;
61038;SDS011;46919;45.816;3.104;2023-07-13T13:58:12;2.38;;;0.82;;
61038;SDS011;46919;45.816;3.104;2023-07-13T14:00:38;0.82;;;0.70;;
61038;SDS011;46919;45.816;3.104;2023-07-13T14:03:03;2.17;;;0.90;;
61038;SDS011;46919;45.816;3.104;2023-07-13T14:05:31;2.75;;;0.68;;
61038;SDS011;46919;45.816;3.104;2023-07-13T14:07:56;7.40;;;0.90;;
61038;SDS011;46919;45.816;3.104;2023-07-13T14:10:22;2.67;;;1.15;;
61038;SDS011;46919;45.816;3.104;2023-07-13T14:12:50;2.22;;;0.75;;
61038;SDS011;46919;45.816;3.104;2023-07-13T14:15:27;4.25;;;0.82;;
61038;SDS011;46919;45.816;3.104;2023-07-13T14:17:55;2.85;;;0.80;;
61038;SDS011;46919;45.816;3.104;2023-07-13T14:20:23;1.98;;;0.82;;
61038;SDS011;46919;45.816;3.104;2023-07-13T14:22:50;2.72;;;0.88;;
61038;SDS011;46919;45.816;3.104;2023-07-13T14:25:17;1.88;;;0.68;;
61038;SDS011;46919;45.816;3.104;2023-07-13T14:27:44;1.55;;;0.70;;
61038;SDS011;46919;45.816;3.104;2023-07-13T14:30:15;2.70;;;0.98;;
61038;SDS011;46919;45.816;3.104;2023-07-13T14:32:43;1.17;;;0.75;;
61038;SDS011;46919;45.816;3.104;2023-07-13T14:35:16;3.03;;;1.13;;
61038;SDS011;46919;45.816;3.104;2023-07-13T14:37:42;1.75;;;1.00;;
61038;SDS011;46919;45.816;3.104;2023-07-13T14:40:30;2.03;;;0.80;;
61038;SDS011;46919;45.816;3.104;2023-07-13T14:42:55;2.40;;;1.00;;
61038;SDS011;46919;45.816;3.104;2023-07-13T14:45:21;2.47;;;0.90;;
61038;SDS011;46919;45.816;3.104;2023-07-13T14:47:46;4.25;;;0.90;;
61038;SDS011;46919;45.816;3.104;2023-07-13T14:50:17;3.80;;;0.85;;
61038;SDS011;46919;45.816;3.104;2023-07-13T14:52:46;1.60;;;0.70;;
61038;SDS011;46919;45.816;3.104;2023-07-13T14:55:13;3.13;;;0.82;;
61038;SDS011;46919;45.816;3.104;2023-07-13T14:57:40;3.15;;;0.80;;
61038;SDS011;46919;45.816;3.104;2023-07-13T15:00:18;2.70;;;0.93;;
61038;SDS011;46919;45.816;3.104;2023-07-13T15:02:47;2.53;;;1.05;;
61038;SDS011;46919;45.816;3.104;2023-07-13T15:05:19;1.52;;;0.80;;
61038;SDS011;46919;45.816;3.104;2023-07-13T15:07:49;3.33;;;0.60;;
61038;SDS011;46919;45.816;3.104;2023-07-13T15:10:17;2.65;;;0.65;;
61038;SDS011;46919;45.816;3.104;2023-07-13T15:12:44;1.98;;;0.65;;
61038;SDS011;46919;45.816;3.104;2023-07-13T15:15:10;2.50;;;0.80;;
61038;SDS011;46919;45.816;3.104;2023-07-13T15:17:36;1.52;;;0.90;;
61038;SDS011;46919;45.816;3.104;2023-07-13T15:22:53;3.42;;;1.00;;
61038;SDS011;46919;45.816;3.104;2023-07-13T15:25:23;3.15;;;0.93;;
61038;SDS011;46919;45.816;3.104;2023-07-13T15:27:51;2.42;;;0.70;;
61038;SDS011;46919;45.816;3.104;2023-07-13T15:30:17;3.58;;;0.90;;
61038;SDS011;46919;45.816;3.104;2023-07-13T15:32:43;1.60;;;0.90;;
61038;SDS011;46919;45.816;3.104;2023-07-13T15:35:13;3.28;;;1.13;;
61038;SDS011;46919;45.816;3.104;2023-07-13T15:37:40;1.88;;;0.90;;
61038;SDS011;46919;45.816;3.104;2023-07-13T15:40:06;1.65;;;0.60;;
61038;SDS011;46919;45.816;3.104;2023-07-13T15:42:32;1.85;;;0.80;;